Time;durP1;ratioP1;P1;durP2;ratioP2;P2;SDS_P1;SDS_P2;PMS_P1;PMS_P2;Temp;Humidity;BMP_temperature;BMP_pressure;BME280_temperature;BME280_humidity;BME280_pressure;Samples;Min_cycle;Max_cycle;Signal;HPM_P1;HPM_P2
2021/09/03 00:00:58;;;;;;;1.13;0.98;;;;;;;;;;6093190;23;20002;-80
2021/09/03 00:03:24;;;;;;;2.47;1.85;;;;;;;;;;6093577;23;20094;-80
2021/09/03 00:05:50;;;;;;;1.33;0.98;;;;;;;;;;6093050;23;20018;-81
2021/09/03 00:08:16;;;;;;;3.53;1.25;;;;;;;;;;6093764;23;20006;-80
2021/09/03 00:10:42;;;;;;;2.28;2.03;;;;;;;;;;6092965;23;20002;-80
2021/09/03 00:13:08;;;;;;;3.75;1.33;;;;;;;;;;6093004;23;20022;-79
2021/09/03 00:15:34;;;;;;;1.35;0.90;;;;;;;;;;6093282;23;20014;-80
2021/09/03 00:18:02;;;;;;;4.03;1.70;;;;;;;;;;6067099;23;20038;-80
2021/09/03 00:20:28;;;;;;;2.05;1.05;;;;;;;;;;6093238;23;20010;-81
2021/09/03 00:22:54;;;;;;;1.55;1.25;;;;;;;;;;6067704;23;20007;-80
2021/09/03 00:25:21;;;;;;;2.50;0.80;;;;;;;;;;6092997;23;20081;-80
2021/09/03 00:27:47;;;;;;;1.70;1.08;;;;;;;;;;6092568;23;20006;-80
2021/09/03 00:30:13;;;;;;;4.30;1.50;;;;;;;;;;6093015;23;20013;-80
2021/09/03 00:32:39;;;;;;;3.58;1.42;;;;;;;;;;6093054;23;20002;-81
2021/09/03 00:35:06;;;;;;;2.00;0.77;;;;;;;;;;6093188;23;20083;-80
2021/09/03 00:37:32;;;;;;;2.40;1.48;;;;;;;;;;6093328;23;20113;-81
2021/09/03 00:39:58;;;;;;;4.60;1.63;;;;;;;;;;6092497;23;20042;-80
2021/09/03 00:42:24;;;;;;;2.78;1.45;;;;;;;;;;6092863;23;20006;-81
2021/09/03 00:44:50;;;;;;;3.97;1.90;;;;;;;;;;6093007;23;20093;-81
2021/09/03 00:47:16;;;;;;;2.60;1.40;;;;;;;;;;6093244;23;20006;-79
2021/09/03 00:49:42;;;;;;;1.67;1.25;;;;;;;;;;6092627;23;20007;-80
2021/09/03 00:52:08;;;;;;;2.17;1.35;;;;;;;;;;6093083;23;20345;-81
2021/09/03 00:54:35;;;;;;;2.35;1.45;;;21.30;65.20;;;;;;6093056;23;20328;-79
2021/09/03 00:57:01;;;;;;;1.48;1.30;;;;;;;;;;6092751;23;20006;-80
2021/09/03 00:59:27;;;;;;;3.67;1.92;;;;;;;;;;6092762;23;20488;-80
2021/09/03 01:01:53;;;;;;;6.13;2.67;;;;;;;;;;6092939;23;20334;-80
2021/09/03 01:04:20;;;;;;;3.63;1.95;;;;;;;;;;6092553;23;20013;-80
2021/09/03 01:06:46;;;;;;;2.65;1.67;;;;;;;;;;6092723;23;19999;-80
2021/09/03 01:09:12;;;;;;;3.70;1.80;;;;;;;;;;6093123;23;20014;-80
2021/09/03 01:11:38;;;;;;;2.13;0.93;;;;;;;;;;6092006;23;20046;-80
2021/09/03 01:14:04;;;;;;;2.08;1.33;;;;;;;;;;6093255;23;20044;-80
2021/09/03 01:16:30;;;;;;;2.08;1.20;;;;;;;;;;6092822;23;20002;-81
2021/09/03 01:18:56;;;;;;;3.15;2.28;;;;;;;;;;6093054;23;20018;-80
2021/09/03 01:21:22;;;;;;;4.30;1.17;;;;;;;;;;6093026;23;20111;-80
2021/09/03 01:23:48;;;;;;;1.50;1.40;;;;;;;;;;6092811;23;20095;-80
2021/09/03 01:26:14;;;;;;;2.45;1.38;;;;;;;;;;6092607;23;20025;-80
2021/09/03 01:28:40;;;;;;;2.22;1.30;;;;;;;;;;6092965;23;20103;-80
2021/09/03 01:31:06;;;;;;;3.08;1.30;;;;;;;;;;6067100;23;20010;-80
2021/09/03 01:33:32;;;;;;;2.67;1.40;;;;;;;;;;6093218;23;20056;-80
2021/09/03 01:35:58;;;;;;;4.10;2.58;;;;;;;;;;6092449;23;20026;-80
2021/09/03 01:38:24;;;;;;;1.17;1.00;;;;;;;;;;6092574;23;20567;-81
2021/09/03 01:40:50;;;;;;;3.95;1.42;;;;;;;;;;6066182;23;20007;-80
2021/09/03 01:43:16;;;;;;;1.90;1.52;;;;;;;;;;6092870;23;20085;-80
2021/09/03 01:45:42;;;;;;;1.80;1.38;;;;;;;;;;6092760;23;20030;-81
2021/09/03 01:48:08;;;;;;;2.42;1.40;;;;;;;;;;6067052;23;20520;-81
2021/09/03 01:50:34;;;;;;;2.63;1.48;;;;;;;;;;6092042;23;20081;-80
2021/09/03 01:53:00;;;;;;;1.42;1.00;;;;;;;;;;6092719;23;20013;-80
2021/09/03 01:55:26;;;;;;;5.90;1.45;;;;;;;;;;6092908;23;20006;-80
2021/09/03 01:57:52;;;;;;;5.20;1.27;;;;;;;;;;6092356;23;20032;-79
2021/09/03 02:00:18;;;;;;;3.22;1.42;;;;;;;;;;6066580;23;20493;-81
2021/09/03 02:02:44;;;;;;;4.65;1.73;;;;;;;;;;6092526;23;20045;-80
2021/09/03 02:05:10;;;;;;;3.95;1.40;;;;;;;;;;6092288;23;20081;-80
2021/09/03 02:07:36;;;;;;;1.65;1.25;;;;;;;;;;6092906;23;20006;-81
2021/09/03 02:10:04;;;;;;;3.35;1.77;;;20.60;73.70;;;;;;6091587;23;20481;-80
2021/09/03 02:12:30;;;;;;;2.63;1.08;;;;;;;;;;6066361;23;20114;-81
2021/09/03 02:14:56;;;;;;;3.25;1.38;;;;;;;;;;6092857;23;20038;-80
2021/09/03 02:17:22;;;;;;;2.38;1.88;;;;;;;;;;6066841;23;20007;-80
2021/09/03 02:19:48;;;;;;;2.67;1.63;;;;;;;;;;6091820;23;20053;-81
2021/09/03 02:22:14;;;;;;;2.53;1.13;;;;;;;;;;6066998;23;20449;-80
2021/09/03 02:24:40;;;;;;;5.45;2.10;;;;;;;;;;6093909;23;20006;-80
2021/09/03 02:27:06;;;;;;;2.90;1.15;;;;;;;;;;6094245;23;20006;-80
2021/09/03 02:29:32;;;;;;;3.60;1.60;;;;;;;;;;6094102;23;20082;-80
2021/09/03 02:31:58;;;;;;;2.67;1.50;;;;;;;;;;6094273;23;20445;-80
2021/09/03 02:34:25;;;;;;;2.35;1.50;;;20.10;71.40;;;;;;6068259;23;20011;-80
2021/09/03 02:36:51;;;;;;;3.50;1.63;;;;;;;;;;6068367;23;20080;-80
2021/09/03 02:39:17;;;;;;;1.92;1.17;;;;;;;;;;6093734;23;20516;-80
2021/09/03 02:41:43;;;;;;;11.57;1.40;;;;;;;;;;6068073;23;20017;-80
2021/09/03 02:44:09;;;;;;;1.73;1.33;;;;;;;;;;6094431;23;20007;-80
2021/09/03 02:46:35;;;;;;;1.67;1.33;;;;;;;;;;6094123;23;20370;-79
2021/09/03 02:49:01;;;;;;;1.88;1.15;;;;;;;;;;6094049;23;20014;-80
2021/09/03 02:51:27;;;;;;;2.65;1.73;;;;;;;;;;6093855;23;20006;-80
2021/09/03 02:53:53;;;;;;;1.73;1.05;;;;;;;;;;6093483;23;20002;-81
2021/09/03 02:56:19;;;;;;;3.65;2.08;;;;;;;;;;6093774;23;20030;-80
2021/09/03 02:58:45;;;;;;;13.20;1.48;;;;;;;;;;6093718;23;20021;-80
2021/09/03 03:01:11;;;;;;;1.95;1.25;;;;;;;;;;6093810;23;20438;-79
2021/09/03 03:03:37;;;;;;;1.95;1.50;;;;;;;;;;6068130;23;20013;-79
2021/09/03 03:06:03;;;;;;;3.47;2.08;;;;;;;;;;6093891;23;20026;-80
2021/09/03 03:08:29;;;;;;;4.72;1.40;;;;;;;;;;6067971;23;20054;-81
2021/09/03 03:10:55;;;;;;;3.00;2.08;;;;;;;;;;6093359;23;20152;-80
2021/09/03 03:13:24;;;;;;;6.05;2.10;;;;;;;;;;6093371;23;20027;-80
2021/09/03 03:15:51;;;;;;;3.55;1.70;;;;;;;;;;6093888;23;20014;-80
2021/09/03 03:18:18;;;;;;;3.75;1.27;;;;;;;;;;6093614;23;20066;-80
2021/09/03 03:20:44;;;;;;;3.92;1.23;;;;;;;;;;6093781;23;20036;-80
2021/09/03 03:23:10;;;;;;;2.22;1.38;;;;;;;;;;6093383;23;20006;-80
2021/09/03 03:25:36;;;;;;;3.20;1.67;;;;;;;;;;6093715;23;20010;-80
2021/09/03 03:28:02;;;;;;;1.52;1.00;;;;;;;;;;6093935;23;20058;-80
2021/09/03 03:30:29;;;;;;;2.53;1.08;;;;;;;;;;6093448;23;20456;-80
2021/09/03 03:32:55;;;;;;;2.63;1.40;;;;;;;;;;6093140;23;20009;-81
2021/09/03 03:35:22;;;;;;;1.77;1.20;;;;;;;;;;6093497;23;20420;-80
2021/09/03 03:37:48;;;;;;;;;;;19.70;70.60;;;;;;6093976;23;20014;-80
2021/09/03 03:40:14;;;;;;;2.92;1.13;;;;;;;;;;6093440;23;20276;-80
2021/09/03 03:42:40;;;;;;;0.90;0.88;;;;;;;;;;6093404;23;20013;-80
2021/09/03 03:45:07;;;;;;;1.35;1.08;;;21.30;71.10;;;;;;6093906;23;20081;-80
2021/09/03 03:47:33;;;;;;;2.95;1.50;;;;;;;;;;6093307;23;20013;-80
2021/09/03 03:49:59;;;;;;;1.50;0.98;;;;;;;;;;6067180;23;20014;-80
2021/09/03 03:52:25;;;;;;;2.35;1.33;;;;;;;;;;6067737;23;20057;-80
2021/09/03 03:54:51;;;;;;;1.73;1.15;;;;;;;;;;6093267;23;20002;-79
2021/09/03 03:57:16;;;;;;;3.20;1.88;;;;;;;;;;6093617;23;20011;-80
2021/09/03 03:59:42;;;;;;;3.25;1.60;;;;;;;;;;6093219;23;20014;-80
2021/09/03 04:02:08;;;;;;;2.22;1.40;;;;;;;;;;6093102;23;20006;-80
2021/09/03 04:04:34;;;;;;;2.58;1.50;;;;;;;;;;6093512;23;20552;-80
2021/09/03 04:07:00;;;;;;;1.42;1.02;;;;;;;;;;6092770;23;20084;-79
2021/09/03 04:09:26;;;;;;;2.78;1.17;;;;;;;;;;6093151;23;20020;-80
2021/09/03 04:11:53;;;;;;;3.15;1.58;;;;;;;;;;6093212;23;20020;-80
2021/09/03 04:14:19;;;;;;;1.20;0.82;;;;;;;;;;6093186;23;20379;-80
2021/09/03 04:16:46;;;;;;;1.92;1.45;;;19.40;71.10;;;;;;6092984;23;20009;-80
2021/09/03 04:19:12;;;;;;;1.42;1.15;;;;;;;;;;6093362;23;20018;-80
2021/09/03 04:21:38;;;;;;;1.02;0.90;;;;;;;;;;6092873;23;20006;-80
2021/09/03 04:24:04;;;;;;;1.98;1.15;;;;;;;;;;6093001;23;20013;-80
2021/09/03 04:26:30;;;;;;;1.75;1.25;;;;;;;;;;6092790;23;19998;-80
2021/09/03 04:28:56;;;;;;;1.33;0.93;;;;;;;;;;6093011;23;20029;-80
2021/09/03 04:31:22;;;;;;;3.88;1.27;;;;;;;;;;6093312;23;20054;-80
2021/09/03 04:33:48;;;;;;;2.22;1.50;;;;;;;;;;6093311;23;20002;-80
2021/09/03 04:36:14;;;;;;;4.72;1.50;;;;;;;;;;6067105;23;20430;-80
2021/09/03 04:38:40;;;;;;;4.63;1.73;;;;;;;;;;6092751;23;20017;-79
2021/09/03 04:41:06;;;;;;;1.88;1.52;;;;;;;;;;6092643;23;20060;-80
2021/09/03 04:43:32;;;;;;;2.30;1.48;;;;;;;;;;6092798;23;20089;-79
2021/09/03 04:45:58;;;;;;;1.58;1.17;;;;;;;;;;6092557;23;20565;-80
2021/09/03 04:48:24;;;;;;;6.90;2.17;;;;;;;;;;6093012;23;20006;-80
2021/09/03 04:50:51;;;;;;;1.73;1.10;;;;;;;;;;6092770;23;19998;-80
2021/09/03 04:53:18;;;;;;;3.33;1.48;;;;;;;;;;6092972;23;20010;-80
2021/09/03 04:55:44;;;;;;;2.22;1.30;;;;;;;;;;6092986;23;20009;-80
2021/09/03 04:58:10;;;;;;;4.50;1.52;;;;;;;;;;6093300;23;20006;-80
2021/09/03 05:00:36;;;;;;;2.75;1.45;;;;;;;;;;6093063;23;20024;-80
2021/09/03 05:03:02;;;;;;;3.10;1.58;;;;;;;;;;6092105;23;20619;-80
2021/09/03 05:05:28;;;;;;;1.23;1.13;;;;;;;;;;6093059;23;20006;-80
2021/09/03 05:07:54;;;;;;;2.08;1.20;;;;;;;;;;6092943;23;20003;-80
2021/09/03 05:10:20;;;;;;;8.07;1.48;;;;;;;;;;6092721;23;20002;-80
2021/09/03 05:12:46;;;;;;;3.53;1.83;;;;;;;;;;6092783;23;20062;-80
2021/09/03 05:15:16;;;;;;;6.28;2.17;;;18.90;72.20;;;;;;6092808;23;20018;-80
2021/09/03 05:17:47;;;;;;;1.75;1.20;;;;;;;;;;6088503;23;20002;-80
2021/09/03 05:20:14;;;;;;;2.03;1.35;;;;;;;;;;6091140;23;20018;-80
2021/09/03 05:22:40;;;;;;;5.43;1.70;;;;;;;;;;6090236;23;20438;-80
2021/09/03 05:25:08;;;;;;;3.13;1.48;;;;;;;;;;6091099;23;20444;-80
2021/09/03 05:27:34;;;;;;;5.78;1.02;;;;;;;;;;6091221;23;20002;-79
2021/09/03 05:30:00;;;;;;;2.30;1.60;;;;;;;;;;6090539;23;20010;-80
2021/09/03 05:32:27;;;;;;;3.25;1.50;;;;;;;;;;6090752;23;20509;-80
2021/09/03 05:34:53;;;;;;;5.80;1.20;;;;;;;;;;6065867;23;20014;-80
2021/09/03 05:37:19;;;;;;;3.75;1.80;;;;;;;;;;6090853;23;20007;-79
2021/09/03 05:39:45;;;;;;;2.25;1.92;;;;;;;;;;6090025;23;20016;-80
2021/09/03 05:42:11;;;;;;;3.40;2.00;;;;;;;;;;6091494;23;20009;-81
2021/09/03 05:44:37;;;;;;;3.00;1.55;;;;;;;;;;6091323;23;20057;-82
2021/09/03 05:47:03;;;;;;;6.47;1.80;;;;;;;;;;6089195;23;20073;-81
2021/09/03 05:49:29;;;;;;;1.75;1.48;;;;;;;;;;6090256;23;20085;-81
2021/09/03 05:51:55;;;;;;;2.13;1.52;;;;;;;;;;6091766;23;20077;-82
2021/09/03 05:54:21;;;;;;;5.68;1.42;;;;;;;;;;6091472;23;20454;-82
2021/09/03 05:56:47;;;;;;;2.20;1.60;;;;;;;;;;6092048;23;20011;-81
2021/09/03 05:59:13;;;;;;;4.00;1.40;;;;;;;;;;6066997;23;20398;-81
2021/09/03 06:01:39;;;;;;;2.13;1.50;;;;;;;;;;6093321;23;20026;-81
2021/09/03 06:04:06;;;;;;;4.60;2.35;;;;;;;;;;6093979;23;20564;-81
2021/09/03 06:06:32;;;;;;;2.55;1.60;;;;;;;;;;6067805;23;20726;-82
2021/09/03 06:08:58;;;;;;;2.72;1.48;;;;;;;;;;6092892;23;20461;-81
2021/09/03 06:11:27;;;;;;;3.30;1.20;;;;;;;;;;6093431;23;20009;-82
2021/09/03 06:13:53;;;;;;;5.78;1.90;;;19.90;70.70;;;;;;6064267;23;20501;-81
2021/09/03 06:16:20;;;;;;;3.43;1.93;;;;;;;;;;6063712;23;20006;-81
2021/09/03 06:18:46;;;;;;;2.80;1.75;;;;;;;;;;6064519;23;20263;-81
2021/09/03 06:21:12;;;;;;;1.67;1.30;;;;;;;;;;6064618;23;20354;-82
2021/09/03 06:23:38;;;;;;;4.15;1.58;;;;;;;;;;6064133;23;20081;-82
2021/09/03 06:26:04;;;;;;;3.05;2.13;;;;;;;;;;6064246;23;20466;-82
2021/09/03 06:28:30;;;;;;;6.68;1.65;;;;;;;;;;6063864;23;20003;-82
2021/09/03 06:30:56;;;;;;;2.40;1.70;;;;;;;;;;6064486;23;20684;-83
2021/09/03 06:33:22;;;;;;;6.25;1.75;;;;;;;;;;6063434;23;20018;-82
2021/09/03 06:35:48;;;;;;;1.77;1.33;;;;;;;;;;6060026;23;20011;-84
2021/09/03 06:38:14;;;;;;;2.05;1.15;;;;;;;;;;6056846;23;20430;-85
2021/09/03 06:40:40;;;;;;;2.63;1.88;;;;;;;;;;6045264;23;20018;-84
2021/09/03 06:43:06;;;;;;;2.45;1.33;;;;;;;;;;6059621;23;20003;-84
2021/09/03 06:45:32;;;;;;;5.28;1.30;;;;;;;;;;6059230;23;20006;-84
2021/09/03 06:47:58;;;;;;;6.43;1.83;;;;;;;;;;6058141;23;20010;-82
2021/09/03 06:50:24;;;;;;;2.03;1.13;;;;;;;;;;6060266;23;20010;-83
2021/09/03 06:52:50;;;;;;;3.08;1.75;;;;;;;;;;6059818;23;20544;-83
2021/09/03 06:55:16;;;;;;;3.20;1.77;;;;;;;;;;6059522;23;20062;-81
2021/09/03 06:57:42;;;;;;;1.52;1.30;;;;;;;;;;6059931;23;20753;-81
2021/09/03 07:00:09;;;;;;;2.90;1.80;;;;;;;;;;6060684;23;20037;-81
2021/09/03 07:02:35;;;;;;;2.40;1.80;;;;;;;;;;6061002;23;20122;-82
2021/09/03 07:05:01;;;;;;;5.63;2.55;;;;;;;;;;6059503;23;20017;-84
2021/09/03 07:07:27;;;;;;;3.00;1.75;;;;;;;;;;6060907;23;20003;-84
2021/09/03 07:09:54;;;;;;;3.92;2.20;;;;;;;;;;6060037;23;20014;-84
2021/09/03 07:12:20;;;;;;;5.70;1.70;;;;;;;;;;6064799;23;20049;-84
2021/09/03 07:14:46;;;;;;;4.72;3.00;;;;;;;;;;6060916;23;20309;-84
2021/09/03 07:17:12;;;;;;;3.97;2.40;;;;;;;;;;6089807;23;20015;-84
2021/09/03 07:19:38;;;;;;;3.05;1.48;;;;;;;;;;6089544;23;20014;-83
2021/09/03 07:22:05;;;;;;;9.93;2.78;;;;;;;;;;6090004;23;20002;-84
2021/09/03 07:24:31;;;;;;;2.78;1.73;;;;;;;;;;6085218;23;20011;-85
2021/09/03 07:26:57;;;;;;;2.50;1.33;;;;;;;;;;6090047;23;20030;-84
2021/09/03 07:29:23;;;;;;;3.40;2.00;;;;;;;;;;6090455;23;20009;-83
2021/09/03 07:31:49;;;;;;;2.72;1.67;;;;;;;;;;6089356;23;20006;-82
2021/09/03 07:34:15;;;;;;;3.38;1.20;;;;;;;;;;6086395;23;20077;-82
2021/09/03 07:36:41;;;;;;;2.88;1.67;;;;;;;;;;6089745;23;20020;-83
2021/09/03 07:39:07;;;;;;;2.90;1.75;;;;;;;;;;6089557;23;20010;-83
2021/09/03 07:41:33;;;;;;;3.72;2.42;;;;;;;;;;6063795;23;20002;-81
2021/09/03 07:43:59;;;;;;;7.05;3.20;;;;;;;;;;6086221;23;20472;-81
2021/09/03 07:46:25;;;;;;;8.00;5.95;;;;;;;;;;6089099;23;20006;-81
2021/09/03 07:48:51;;;;;;;6.70;3.53;;;;;;;;;;6090549;23;20006;-83
2021/09/03 07:51:17;;;;;;;6.78;3.75;;;;;;;;;;6090012;23;20054;-83
2021/09/03 07:53:44;;;;;;;7.18;2.92;;;;;;;;;;6086452;23;20017;-82
2021/09/03 07:56:10;;;;;;;3.97;2.80;;;;;;;;;;6063311;23;20006;-82
2021/09/03 07:58:36;;;;;;;7.00;4.03;;;;;;;;;;6089782;23;20018;-84
2021/09/03 08:01:02;;;;;;;14.45;4.13;;;;;;;;;;6091087;23;20010;-82
2021/09/03 08:03:28;;;;;;;5.50;4.13;;;;;;;;;;6088700;23;20479;-84
2021/09/03 08:05:55;;;;;;;5.77;3.73;;;;;;;;;;6090613;23;20077;-84
2021/09/03 08:08:21;;;;;;;6.15;2.95;;;;;;;;;;6086725;23;20002;-85
2021/09/03 08:10:47;;;;;;;4.53;2.92;;;;;;;;;;6090226;23;20704;-83
2021/09/03 08:13:13;;;;;;;4.10;2.97;;;;;;;;;;6088158;23;20026;-83
2021/09/03 08:15:40;;;;;;;5.47;3.40;;;;;;;;;;6089531;23;20003;-82
2021/09/03 08:18:06;;;;;;;4.53;2.60;;;;;;;;;;6089743;23;20013;-83
2021/09/03 08:20:33;;;;;;;6.45;2.55;;;24.10;61.00;;;;;;6089008;23;20021;-86
2021/09/03 08:23:02;;;;;;;9.57;2.97;;;24.30;60.00;;;;;;6087994;23;20825;-83
2021/09/03 08:25:29;;;;;;;4.95;2.22;;;;;;;;;;6090199;23;20002;-84
2021/09/03 08:27:55;;;;;;;4.60;2.25;;;;;;;;;;6064139;23;20386;-82
2021/09/03 08:30:21;;;;;;;6.40;2.42;;;;;;;;;;6089421;23;20109;-84
2021/09/03 08:32:47;;;;;;;15.38;2.45;;;;;;;;;;6087767;23;20046;-82
2021/09/03 08:35:14;;;;;;;6.85;2.38;;;;;;;;;;6089477;23;20012;-83
2021/09/03 08:37:40;;;;;;;5.18;3.35;;;;;;;;;;6088667;23;20426;-84
2021/09/03 08:40:08;;;;;;;12.50;2.77;;;25.50;59.20;;;;;;6090547;23;20718;-83
2021/09/03 08:42:37;;;;;;;4.15;2.67;;;25.70;58.50;;;;;;6088544;23;20003;-83
2021/09/03 08:45:04;;;;;;;3.38;2.00;;;26.10;58.40;;;;;;6062079;23;20010;-84
2021/09/03 08:47:32;;;;;;;5.07;2.38;;;26.30;58.30;;;;;;6089497;23;20449;-83
2021/09/03 08:49:58;;;;;;;4.00;2.30;;;;;;;;;;6090427;23;20016;-83
2021/09/03 08:52:24;;;;;;;7.13;1.83;;;;;;;;;;6088736;23;20006;-84
2021/09/03 08:54:50;;;;;;;2.85;1.83;;;;;;;;;;6061304;23;20013;-83
2021/09/03 08:57:17;;;;;;;16.83;2.28;;;;;;;;;;6063453;23;20006;-82
2021/09/03 08:59:43;;;;;;;2.97;1.30;;;;;;;;;;6089651;23;20014;-83
2021/09/03 09:02:10;;;;;;;14.70;2.13;;;;;;;;;;6064800;23;20010;-83
2021/09/03 09:04:40;;;;;;;4.93;1.52;;;26.20;55.90;;;;;;6086826;23;20101;-84
2021/09/03 09:07:06;;;;;;;6.68;1.75;;;26.10;55.00;;;;;;6088968;23;20013;-84
2021/09/03 09:09:34;;;;;;;10.93;1.35;;;26.10;54.50;;;;;;6088647;23;20441;-82
2021/09/03 09:12:05;;;;;;;5.00;1.20;;;26.40;56.10;;;;;;6064438;23;20026;-83
2021/09/03 09:14:51;;;;;;;4.75;1.80;;;;;;;;;;6060202;23;20015;-83
2021/09/03 09:17:37;;;;;;;1.60;1.03;;;;;;;;;;6089292;23;20007;-83
2021/09/03 09:20:08;;;;;;;3.78;1.50;;;26.90;72.00;;;;;;6090026;23;20024;-83
2021/09/03 09:22:52;;;;;;;3.28;1.10;;;;;;;;;;6088536;23;20057;-82
2021/09/03 09:25:32;;;;;;;1.88;0.98;;;27.40;52.70;;;;;;6087311;23;20209;-82
2021/09/03 09:28:17;;;;;;;2.42;1.20;;;27.60;52.80;;;;;;6089107;23;20030;-82
2021/09/03 09:30:43;;;;;;;3.30;1.90;;;27.80;52.30;;;;;;6064046;23;20506;-83
2021/09/03 09:33:17;;;;;;;3.17;1.20;;;28.40;49.30;;;;;;6090535;23;20041;-86
2021/09/03 09:35:44;;;;;;;0.95;0.70;;;28.60;46.80;;;;;;6090705;23;20007;-84
2021/09/03 09:38:11;;;;;;;1.58;0.93;;;;;;;;;;6065281;23;20389;-85
2021/09/03 09:41:04;;;;;;;1.23;0.93;;;29.30;46.00;;;;;;6093021;23;20149;-83
2021/09/03 09:43:40;;;;;;;1.23;0.80;;;28.60;46.60;;;;;;6087784;23;20006;-92
2021/09/03 09:46:24;;;;;;;1.88;0.77;;;28.00;48.50;;;;;;6095902;23;20045;-85
2021/09/03 09:48:53;;;;;;;1.77;1.00;;;;;;;;;;6097744;23;20003;-87
2021/09/03 09:51:25;;;;;;;2.72;1.65;;;27.40;70.10;;;;;;6093898;23;20002;-86
2021/09/03 09:53:59;;;;;;;2.72;1.35;;;27.30;50.40;;;;;;6089965;23;20313;-86
2021/09/03 09:56:26;;;;;;;2.35;1.10;;;27.50;50.00;;;;;;6093805;23;20085;-85
2021/09/03 09:58:54;;;;;;;7.05;2.08;;;27.80;52.30;;;;;;6066230;23;20018;-85
2021/09/03 10:01:21;;;;;;;2.72;1.23;;;28.10;52.20;;;;;;6095319;23;20003;-85
2021/09/03 10:03:48;;;;;;;2.58;1.45;;;28.30;49.30;;;;;;6091022;23;20006;-86
2021/09/03 10:06:19;;;;;;;2.70;1.30;;;28.50;49.60;;;;;;6064833;23;20007;-86
2021/09/03 10:08:46;;;;;;;1.65;0.90;;;;;;;;;;6091478;23;20013;-85
2021/09/03 10:11:15;;;;;;;2.53;1.13;;;;;;;;;;6090780;23;20010;-86
2021/09/03 10:13:42;;;;;;;2.20;0.82;;;29.30;48.50;;;;;;6088957;23;20014;-85
2021/09/03 10:16:08;;;;;;;1.50;0.63;;;;;;;;;;6091131;23;20471;-86
2021/09/03 10:18:34;;;;;;;1.52;1.13;;;;;;;;;;6084803;23;20002;-86
2021/09/03 10:21:01;;;;;;;1.58;0.90;;;29.60;48.40;;;;;;6091081;23;20014;-86
2021/09/03 10:24:04;;;;;;;5.00;2.50;;;29.80;47.20;;;;;;6088885;23;20014;-86
2021/09/03 10:26:33;;;;;;;1.73;0.82;;;29.70;46.20;;;;;;6090007;23;20330;-85
2021/09/03 10:29:17;;;;;;;1.50;1.02;;;;;;;;;;6088954;23;20034;-85
2021/09/03 10:32:02;;;;;;;2.10;0.63;;;;;;;;;;6090743;23;20006;-86
2021/09/03 10:34:40;;;;;;;1.40;0.90;;;29.00;45.60;;;;;;6062649;23;20006;-85
2021/09/03 10:37:29;;;;;;;1.83;1.10;;;;;;;;;;6090430;23;20014;-85
2021/09/03 10:39:55;;;;;;;2.92;0.85;;;;;;;;;;6090758;23;20022;-87
2021/09/03 10:42:44;;;;;;;2.13;1.05;;;;;;;;;;6066074;23;20077;-85
2021/09/03 10:45:18;;;;;;;1.85;0.98;;;;;;;;;;6089878;23;20018;-85
2021/09/03 10:47:45;;;;;;;4.15;0.90;;;;;;;;;;6090359;23;20434;-86
2021/09/03 10:50:14;;;;;;;3.28;1.75;;;;;;;;;;6091081;23;20017;-87
2021/09/03 10:53:00;;;;;;;2.08;1.10;;;;;;;;;;6089607;23;20010;-86
2021/09/03 10:55:45;;;;;;;2.72;1.30;;;;;;;;;;6090101;23;20010;-86
2021/09/03 10:58:11;;;;;;;1.35;0.95;;;;;;;;;;6064170;23;20011;-86
2021/09/03 11:00:37;;;;;;;1.95;1.00;;;;;;;;;;6065760;23;20018;-85
2021/09/03 11:03:36;;;;;;;3.15;1.33;;;26.90;49.30;;;;;;6089993;23;20116;-86
2021/09/03 11:06:02;;;;;;;3.75;1.58;;;;;;;;;;6090868;23;20017;-87
2021/09/03 11:08:42;;;;;;;3.17;1.42;;;26.90;51.00;;;;;;6093760;23;20010;-87
2021/09/03 11:11:24;;;;;;;2.20;1.00;;;;;;;;;;6092162;23;20061;-88
2021/09/03 11:13:51;;;;;;;2.97;1.30;;;;;;;;;;6089758;23;20030;-87
2021/09/03 11:16:52;;;;;;;3.25;1.40;;;26.60;53.20;;;;;;6092754;23;20319;-87
2021/09/03 11:19:35;;;;;;;2.17;1.05;;;26.70;50.20;;;;;;6002920;23;20085;-86
2021/09/03 11:22:06;;;;;;;2.13;1.10;;;;;;;;;;6003571;23;20775;-88
2021/09/03 11:24:33;;;;;;;1.52;1.02;;;;;;;;;;6001788;23;20467;-86
2021/09/03 11:27:01;;;;;;;2.20;1.23;;;;;;;;;;6003620;23;20018;-87
2021/09/03 11:29:34;;;;;;;7.55;1.77;;;26.40;53.50;;;;;;6004339;23;20079;-86
2021/09/03 11:32:10;;;;;;;4.30;1.10;;;;;;;;;;6002671;23;20760;-87
2021/09/03 11:34:43;;;;;;;9.68;1.27;;;;;;;;;;6000264;23;20471;-87
2021/09/03 11:37:10;;;;;;;4.30;1.45;;;;;;;;;;6002662;23;20284;-86
2021/09/03 11:39:36;;;;;;;3.80;0.98;;;;;;;;;;6002438;23;20024;-86
2021/09/03 11:42:02;;;;;;;2.08;1.50;;;26.00;52.20;;;;;;6002223;23;20008;-86
2021/09/03 11:44:28;;;;;;;3.13;1.58;;;;;;;;;;6000124;23;20039;-86
2021/09/03 11:46:54;;;;;;;6.45;1.80;;;;;;;;;;6002809;23;20004;-86
2021/09/03 11:49:24;;;;;;;5.78;2.15;;;;;;;;;;6001252;23;20012;-86
2021/09/03 11:52:03;;;;;;;4.57;1.30;;;;;;;;;;6001768;23;20012;-87
2021/09/03 11:54:30;;;;;;;8.80;1.60;;;;;;;;;;6029312;23;20046;-86
2021/09/03 11:56:57;;;;;;;3.23;1.20;;;;;;;;;;6090697;23;20009;-86
2021/09/03 11:59:23;;;;;;;3.00;1.35;;;;;;;;;;6091137;23;20015;-86
2021/09/03 12:02:02;;;;;;;1.98;1.33;;;25.60;54.90;;;;;;6065697;23;20006;-86
2021/09/03 12:04:28;;;;;;;4.32;0.93;;;;;;;;;;6062219;23;20007;-86
2021/09/03 12:06:54;;;;;;;2.42;1.30;;;;;;;;;;6090142;23;20025;-87
2021/09/03 12:09:33;;;;;;;3.08;1.50;;;;;;;;;;6090608;23;20379;-86
2021/09/03 12:11:59;;;;;;;4.80;1.40;;;;;;;;;;6091194;23;20050;-86
2021/09/03 12:14:25;;;;;;;4.57;1.55;;;;;;;;;;6089028;23;20006;-86
2021/09/03 12:16:52;;;;;;;1.75;1.52;;;;;;;;;;6087445;23;20006;-86
2021/09/03 12:19:23;;;;;;;4.07;1.43;;;;;;;;;;6090685;23;20018;-85
2021/09/03 12:21:49;;;;;;;2.30;1.20;;;;;;;;;;6091888;23;20003;-87
2021/09/03 12:24:15;;;;;;;2.22;1.25;;;;;;;;;;6089106;23;20482;-87
2021/09/03 12:26:50;;;;;;;2.17;1.25;;;26.30;52.30;;;;;;6064346;23;20054;-86
2021/09/03 12:29:19;;;;;;;4.18;1.20;;;;;;;;;;6091144;23;20010;-86
2021/09/03 12:31:53;;;;;;;2.40;1.50;;;;;;;;;;6092095;23;20006;-87
2021/09/03 12:34:19;;;;;;;2.63;1.45;;;;;;;;;;6088803;23;20014;-87
2021/09/03 12:36:45;;;;;;;5.03;1.20;;;;;;;;;;6065947;23;20323;-86
2021/09/03 12:39:18;;;;;;;2.63;1.13;;;26.10;51.40;;;;;;6091666;23;20021;-89
2021/09/03 12:41:44;;;;;;;8.07;2.03;;;;;;;;;;6090130;23;19999;-87
2021/09/03 12:44:29;;;;;;;3.15;1.23;;;26.00;52.40;;;;;;6089393;23;20013;-88
2021/09/03 12:47:00;;;;;;;6.85;1.58;;;25.90;52.00;;;;;;6092580;23;20004;-87
2021/09/03 12:49:30;;;;;;;4.22;1.77;;;25.90;53.60;;;;;;6091173;23;20124;-87
2021/09/03 12:52:02;;;;;;;2.95;1.63;;;25.80;54.20;;;;;;6066105;23;20464;-89
2021/09/03 12:54:28;;;;;;;2.92;1.10;;;;;;;;;;6088981;23;20002;-87
2021/09/03 12:56:55;;;;;;;3.63;1.63;;;;;;;;;;6091897;23;20021;-87
2021/09/03 12:59:22;;;;;;;3.60;1.30;;;;;;;;;;6066063;23;20061;-85
2021/09/03 13:01:48;;;;;;;5.60;1.58;;;;;;;;;;6090064;23;20007;-88
2021/09/03 13:04:24;;;;;;;2.05;1.30;;;;;;;;;;6089317;23;20069;-87
2021/09/03 13:06:51;;;;;;;2.17;1.60;;;26.00;50.70;;;;;;6091593;23;20014;-87
2021/09/03 13:09:19;;;;;;;2.92;1.60;;;26.10;52.10;;;;;;6066262;23;20069;-87
2021/09/03 13:11:46;;;;;;;1.88;1.67;;;;;;;;;;6089566;23;21042;-87
2021/09/03 13:14:13;;;;;;;3.13;1.40;;;;;;;;;;6089677;23;20015;-86
2021/09/03 13:16:38;;;;;;;;;;;26.10;49.40;;;;;;6091221;23;20006;-87
2021/09/03 13:19:09;;;;;;;2.80;1.50;;;;;;;;;;6091900;23;19984;-86
2021/09/03 13:21:36;;;;;;;1.67;1.02;;;;;;;;;;6066037;23;20711;-88
2021/09/03 13:24:02;;;;;;;3.03;1.42;;;;;;;;;;6088338;23;20038;-87
2021/09/03 13:26:29;;;;;;;2.08;1.20;;;;;;;;;;6088078;23;19999;-86
2021/09/03 13:28:55;;;;;;;2.72;1.13;;;;;;;;;;6065478;23;20097;-86
2021/09/03 13:31:22;;;;;;;1.60;1.07;;;;;;;;;;6090162;23;20042;-84
2021/09/03 13:33:52;;;;;;;1.90;1.05;;;;;;;;;;6087386;23;20085;-87
2021/09/03 13:36:20;;;;;;;2.78;1.63;;;25.50;52.00;;;;;;6088703;23;20006;-87
2021/09/03 13:38:47;;;;;;;1.55;0.90;;;;;;;;;;6089994;23;20026;-88
2021/09/03 13:41:13;;;;;;;2.20;1.30;;;;;;;;;;6090919;23;20010;-85
2021/09/03 13:43:39;;;;;;;1.63;1.17;;;;;;;;;;6088830;23;20002;-85
2021/09/03 13:46:05;;;;;;;3.22;1.38;;;;;;;;;;6088990;23;20037;-86
2021/09/03 13:48:31;;;;;;;3.22;1.38;;;;;;;;;;6090597;23;20030;-86
2021/09/03 13:50:57;;;;;;;2.55;1.20;;;;;;;;;;6088353;23;20014;-86
2021/09/03 13:53:23;;;;;;;3.03;1.48;;;;;;;;;;6087563;23;20002;-87
2021/09/03 13:55:49;;;;;;;3.10;2.03;;;;;;;;;;6089780;23;20013;-87
2021/09/03 13:58:15;;;;;;;4.07;1.63;;;;;;;;;;6066603;23;20077;-89
2021/09/03 14:00:41;;;;;;;4.68;1.42;;;;;;;;;;6093106;23;20077;-89
2021/09/03 14:03:07;;;;;;;3.17;0.95;;;;;;;;;;6089874;23;20426;-86
2021/09/03 14:05:33;;;;;;;2.92;1.45;;;;;;;;;;6088186;23;20017;-87
2021/09/03 14:07:59;;;;;;;2.58;1.60;;;;;;;;;;6063788;23;20010;-86
2021/09/03 14:10:25;;;;;;;1.80;1.27;;;;;;;;;;6064647;23;20005;-88
2021/09/03 14:12:51;;;;;;;2.90;1.50;;;;;;;;;;6089965;23;20026;-85
2021/09/03 14:15:17;;;;;;;3.08;1.48;;;;;;;;;;6090250;23;20029;-89
2021/09/03 14:17:43;;;;;;;7.80;1.20;;;;;;;;;;6089823;23;20458;-86
2021/09/03 14:20:09;;;;;;;9.80;1.70;;;;;;;;;;6092542;23;20019;-86
2021/09/03 14:22:35;;;;;;;2.10;1.90;;;;;;;;;;6092334;23;20438;-87
2021/09/03 14:25:01;;;;;;;2.78;1.38;;;;;;;;;;6090308;23;20003;-86
2021/09/03 14:27:27;;;;;;;3.95;1.85;;;;;;;;;;6092594;23;20062;-86